Time;durP1;ratioP1;P1;durP2;ratioP2;P2;SDS_P1;SDS_P2;PMS_P1;PMS_P2;Temp;Humidity;BMP_temperature;BMP_pressure;BME280_temperature;BME280_humidity;BME280_pressure;Samples;Min_cycle;Max_cycle;Signal;HPM_P1;HPM_P2
2021/06/18 03:44:15;;;;;;;18.45;12.40;;;;;;;17.58;65.88;100275.00;5148635;27;20338;-66
2021/06/18 03:46:41;;;;;;;13.98;12.32;;;;;;;17.71;66.40;100269.53;5135481;27;20035;-67
2021/06/18 03:49:06;;;;;;;13.48;11.35;;;;;;;17.89;65.94;100268.00;5135124;27;20024;-66
2021/06/18 03:51:32;;;;;;;14.88;12.20;;;;;;;18.01;65.76;100262.78;5146203;27;38756;-72
2021/06/18 03:53:57;;;;;;;14.68;12.05;;;;;;;18.08;65.34;100267.09;5130958;27;25219;-64
2021/06/18 03:56:23;;;;;;;14.93;12.00;;;;;;;18.15;65.18;100266.19;5131706;27;20469;-65
2021/06/18 03:58:48;;;;;;;16.83;11.48;;;;;;;18.20;65.13;100267.19;5131155;27;20388;-67
2021/06/18 04:01:13;;;;;;;25.20;12.38;;;;;;;18.27;65.14;100269.84;5131657;27;20488;-67
2021/06/18 04:03:40;;;;;;;16.20;12.20;;;;;;;18.32;65.31;100261.94;5113724;27;20387;-69
2021/06/18 04:06:06;;;;;;;14.68;11.25;;;;;;;18.38;65.06;100262.91;5114270;27;20547;-66
2021/06/18 04:08:33;;;;;;;14.63;11.80;;;;;;;18.41;64.81;100251.69;5132166;27;20024;-68
2021/06/18 04:10:58;;;;;;;16.08;12.00;;;;;;;18.45;64.71;100263.69;5114099;27;20031;-68
2021/06/18 04:13:24;;;;;;;15.13;10.80;;;;;;;18.50;64.59;100253.06;5129939;27;33766;-68
2021/06/18 04:15:49;;;;;;;16.13;11.15;;;;;;;18.53;64.56;100257.19;5130302;27;30641;-66
2021/06/18 04:18:24;;;;;;;15.68;11.35;;;;;;;18.57;64.37;100264.59;5130964;27;20024;-67
2021/06/18 04:20:50;;;;;;;15.60;11.48;;;;;;;18.64;64.30;100261.84;5131844;27;20033;-66
2021/06/18 04:23:16;;;;;;;14.13;11.02;;;;;;;18.67;64.02;100253.34;5130670;27;20028;-65
2021/06/18 04:25:41;;;;;;;18.73;11.18;;;;;;;18.72;64.13;100263.44;5131880;27;20486;-67
2021/06/18 04:28:07;;;;;;;16.58;11.93;;;;;;;18.73;63.85;100265.09;5132217;27;20028;-68
2021/06/18 04:30:32;;;;;;;18.50;11.68;;;;;;;18.76;64.00;100268.16;5130313;27;30795;-69
2021/06/18 04:32:58;;;;;;;16.25;12.00;;;;;;;18.78;63.86;100266.09;5129486;27;35358;-69
2021/06/18 04:35:23;;;;;;;18.45;11.65;;;;;;;18.84;63.63;100271.66;5131871;27;20031;-67
2021/06/18 04:37:49;;;;;;;16.55;10.43;;;;;;;18.90;63.55;100282.41;5129933;27;35303;-66
2021/06/18 04:40:14;;;;;;;19.70;11.10;;;;;;;19.00;64.07;100275.66;5131110;27;38079;-65
2021/06/18 04:42:39;;;;;;;17.42;10.48;;;;;;;19.08;63.57;100278.06;5131244;27;20051;-66
2021/06/18 04:45:06;;;;;;;12.05;10.75;;;;;;;19.12;63.35;100276.56;5129829;27;34003;-65
2021/06/18 04:47:31;;;;;;;19.15;11.75;;;;;;;19.15;63.37;100272.59;5131631;27;20133;-67
2021/06/18 04:49:56;;;;;;;15.40;11.02;;;;;;;19.25;63.63;100276.41;5131757;27;20048;-67
2021/06/18 04:52:22;;;;;;;13.23;11.00;;;;;;;19.31;63.34;100273.88;5127301;27;41148;-66
2021/06/18 04:54:51;;;;;;;16.83;11.50;;;;;;;19.34;63.24;100268.84;5117059;27;20039;-65
2021/06/18 04:57:16;;;;;;;14.20;10.50;;;;;;;19.36;62.86;100265.91;5094786;28;20088;-65
2021/06/18 04:59:45;;;;;;;11.93;10.73;;;;;;;19.41;63.17;100272.28;5095304;28;38368;-64
2021/06/18 05:02:10;;;;;;;19.88;13.13;;;;;;;19.51;63.30;100260.94;5094941;28;41975;-64
2021/06/18 05:04:35;;;;;;;21.98;11.30;;;;;;;19.65;63.23;100266.16;5096522;28;36533;-64
2021/06/18 05:07:01;;;;;;;13.57;10.65;;;;;;;19.74;62.92;100264.81;5097262;28;20021;-63
2021/06/18 05:09:26;;;;;;;17.05;10.95;;;;;;;19.77;62.42;100267.03;5097503;28;20112;-65
2021/06/18 05:11:52;;;;;;;14.10;10.90;;;;;;;19.84;62.22;100266.97;5096550;28;20438;-63
2021/06/18 05:14:17;;;;;;;13.38;11.07;;;;;;;19.88;62.07;100268.97;5096195;28;31031;-65
2021/06/18 05:16:42;;;;;;;18.20;11.55;;;;;;;19.94;61.88;100267.22;5095792;28;31759;-65
2021/06/18 05:19:08;;;;;;;15.57;11.88;;;;;;;20.03;62.14;100270.44;5097037;28;20037;-64
2021/06/18 05:21:34;;;;;;;21.25;11.48;;;;;;;20.17;62.30;100266.47;5097048;28;20028;-63
2021/06/18 05:24:00;;;;;;;16.38;11.85;;;;;;;20.29;62.07;100270.03;5096560;28;20040;-67
2021/06/18 05:26:25;;;;;;;16.90;11.85;;;;;;;20.37;61.58;100259.94;5096571;28;20445;-67
2021/06/18 05:28:51;;;;;;;14.48;10.65;;;;;;;20.43;61.42;100269.81;5095364;28;38308;-66
2021/06/18 05:31:16;;;;;;;12.18;10.93;;;;;;;20.49;61.21;100260.78;5097757;28;20066;-66
2021/06/18 05:33:41;;;;;;;15.32;11.18;;;;;;;20.55;60.69;100270.66;5089941;28;28965;-66
2021/06/18 05:36:07;;;;;;;22.70;12.07;;;;;;;20.61;61.05;100264.31;5095165;28;38553;-66
2021/06/18 05:38:32;;;;;;;21.73;11.40;;;;;;;20.72;60.93;100278.94;5095359;28;36010;-67
2021/06/18 05:40:57;;;;;;;18.02;14.52;;;;;;;20.82;60.76;100272.09;5095686;28;20037;-66
2021/06/18 05:43:23;;;;;;;15.45;11.23;;;;;;;20.97;60.84;100264.31;5095765;28;20071;-64
2021/06/18 05:45:48;;;;;;;15.45;11.52;;;;;;;21.06;60.08;100275.59;5096553;28;20028;-65
2021/06/18 05:48:14;;;;;;;14.70;11.10;;;;;;;21.09;60.10;100277.81;5095119;28;20090;-64
2021/06/18 05:50:39;;;;;;;15.38;11.25;;;;;;;21.12;59.19;100277.38;5095482;28;37058;-65
2021/06/18 05:53:04;;;;;;;19.67;11.20;;;;;;;21.18;59.85;100279.13;5095565;28;29193;-65
2021/06/18 05:55:30;;;;;;;16.83;11.68;;;;;;;21.32;59.86;100273.44;5095681;28;38186;-65
2021/06/18 05:57:55;;;;;;;14.90;11.52;;;;;;;21.51;60.11;100279.50;5096013;28;20039;-63
2021/06/18 06:00:21;;;;;;;14.30;10.77;;;;;;;21.66;59.80;100270.88;5085362;28;35709;-64
2021/06/18 06:02:46;;;;;;;18.55;10.75;;;;;;;21.80;59.44;100277.66;5075670;28;20029;-65
2021/06/18 06:05:12;;;;;;;16.23;11.25;;;;;;;21.92;59.05;100286.53;5075005;28;22471;-63
2021/06/18 06:07:38;;;;;;;15.15;11.07;;;;;;;22.07;59.06;100279.75;5075130;28;20033;-64
2021/06/18 06:10:04;;;;;;;14.20;11.15;;;;;;;22.17;58.73;100281.81;5075896;28;20033;-66
2021/06/18 06:12:29;;;;;;;19.90;12.85;;;;;;;22.22;57.60;100284.63;5093907;28;20059;-62
2021/06/18 06:14:55;;;;;;;17.33;11.75;;;;;;;22.28;58.12;100289.91;5095927;28;20048;-63
2021/06/18 06:17:20;;;;;;;16.35;10.63;;;;;;;22.43;58.22;100296.66;5095554;28;20385;-63
2021/06/18 06:19:46;;;;;;;19.88;12.35;;;;;;;22.56;57.50;100287.38;5094021;28;28486;-64
2021/06/18 06:22:12;;;;;;;18.15;12.98;;;;;;;22.62;57.79;100287.22;5081255;28;33147;-64
2021/06/18 06:24:37;;;;;;;19.15;11.13;;;;;;;22.76;57.51;100295.03;5077953;28;20033;-66
2021/06/18 06:27:03;;;;;;;17.33;11.10;;;;;;;22.94;57.25;100285.78;5079315;28;20037;-63
2021/06/18 06:29:28;;;;;;;33.10;12.13;;;;;;;23.09;57.00;100288.69;5094581;28;20031;-65
2021/06/18 06:31:54;;;;;;;14.85;10.63;;;;;;;23.22;56.50;100294.88;5095051;28;29369;-67
2021/06/18 06:34:19;;;;;;;13.90;10.65;;;;;;;23.34;56.71;100292.03;5095652;28;20496;-68
2021/06/18 06:36:45;;;;;;;40.22;12.38;;;;;;;23.47;56.43;100291.66;5095790;28;20481;-66
2021/06/18 06:39:10;;;;;;;16.27;10.77;;;;;;;23.54;55.79;100286.84;5095500;28;20051;-65
2021/06/18 06:41:36;;;;;;;17.55;14.82;;;;;;;23.62;55.97;100286.38;5095814;28;20050;-66
2021/06/18 06:44:01;;;;;;;12.05;10.43;;;;;;;23.72;54.75;100284.88;5095571;28;20089;-66
2021/06/18 06:46:26;;;;;;;12.07;10.07;;;;;;;23.75;54.85;100289.78;5095912;28;20389;-65
2021/06/18 06:48:52;;;;;;;14.52;10.57;;;;;;;23.79;54.65;100282.75;5094677;28;31459;-64
2021/06/18 06:51:17;;;;;;;16.98;10.32;;;;;;;23.95;55.08;100292.75;5092951;28;20028;-64
2021/06/18 06:53:43;;;;;;;10.82;9.57;;;;;;;24.17;55.37;100286.41;5074989;28;20028;-68
2021/06/18 06:56:09;;;;;;;12.77;10.30;;;;;;;24.39;54.90;100291.78;5074864;28;20033;-66
2021/06/18 06:58:35;;;;;;;17.48;9.60;;;;;;;24.52;54.36;100287.78;5091325;28;20032;-70
2021/06/18 07:01:00;;;;;;;13.05;9.55;;;;;;;24.73;54.48;100283.34;5110727;28;22207;-68
2021/06/18 07:03:26;;;;;;;11.70;9.77;;;;;;;24.92;54.02;100281.00;5094486;28;37011;-67
2021/06/18 07:05:51;;;;;;;13.70;9.18;;;;;;;25.08;53.41;100283.81;5095394;28;20035;-67
2021/06/18 07:08:18;;;;;;;13.45;9.35;;;;;;;25.17;52.69;100284.94;5094427;28;39303;-66
2021/06/18 07:10:43;;;;;;;12.95;11.38;;;;;;;25.25;53.12;100278.97;5095311;28;20086;-67
2021/06/18 07:13:09;;;;;;;16.30;9.73;;;;;;;25.43;52.99;100285.09;5094554;28;35148;-66
2021/06/18 07:15:34;;;;;;;15.07;8.65;;;;;;;25.57;52.69;100280.75;5094860;28;20044;-68
2021/06/18 07:17:59;;;;;;;11.73;9.13;;;;;;;25.69;51.90;100277.78;5094108;28;24467;-67
2021/06/18 07:20:25;;;;;;;12.65;9.75;;;;;;;25.78;51.56;100278.06;5094701;28;20020;-71
2021/06/18 07:22:50;;;;;;;13.45;9.00;;;;;;;25.90;51.43;100275.91;5093244;28;22205;-74
2021/06/18 07:25:16;;;;;;;10.65;9.35;;;;;;;26.01;51.38;100274.84;5094099;28;38414;-74
2021/06/18 07:27:41;;;;;;;13.65;12.25;;;;;;;26.25;51.34;100279.81;5109748;28;31528;-69
2021/06/18 07:30:07;;;;;;;12.27;9.38;;;;;;;26.46;51.25;100282.53;5094796;28;20037;-65
2021/06/18 07:32:32;;;;;;;12.82;8.98;;;;;;;26.61;50.28;100271.56;5094719;28;20033;-72
2021/06/18 07:34:58;;;;;;;12.60;9.55;;;;;;;26.68;50.32;100277.59;5094751;28;20028;-70
2021/06/18 07:37:23;;;;;;;13.65;9.30;;;;;;;26.87;49.97;100274.28;5094649;28;22212;-69
2021/06/18 07:39:48;;;;;;;10.10;8.98;;;;;;;26.93;49.35;100265.00;5093990;28;34632;-69
2021/06/18 07:42:14;;;;;;;11.20;8.48;;;;;;;27.13;49.36;100269.59;5093568;28;29651;-70
2021/06/18 07:44:39;;;;;;;11.68;9.63;;;;;;;27.29;48.04;100259.38;5094852;28;20370;-76
2021/06/18 07:47:07;;;;;;;11.93;9.40;;;;;;;27.35;48.52;100258.28;5093722;28;36318;-70
2021/06/18 07:49:33;;;;;;;13.35;9.18;;;;;;;27.53;48.07;100259.56;5094349;28;21704;-67
2021/06/18 07:51:59;;;;;;;15.25;9.05;;;;;;;27.66;47.36;100258.13;5094418;28;20029;-66
2021/06/18 07:54:26;;;;;;;13.95;9.55;;;;;;;27.79;47.71;100253.09;5094447;28;20047;-67
2021/06/18 07:56:51;;;;;;;12.07;9.18;;;;;;;27.95;47.39;100253.81;5094415;28;20136;-71
2021/06/18 07:59:17;;;;;;;11.55;9.10;;;;;;;28.22;47.46;100258.84;5094556;28;20554;-69
2021/06/18 08:01:42;;;;;;;13.95;9.25;;;;;;;28.48;47.09;100255.88;5094326;28;25094;-71
2021/06/18 08:04:07;;;;;;;13.05;9.00;;;;;;;28.74;46.75;100241.94;5094625;28;20349;-71
2021/06/18 08:06:34;;;;;;;14.68;9.60;;;;;;;29.02;46.70;100243.81;5094524;28;20029;-73
2021/06/18 08:08:59;;;;;;;13.65;9.00;;;;;;;29.23;46.42;100240.81;5093078;28;20063;-72
2021/06/18 08:11:25;;;;;;;16.48;14.57;;;;;;;29.50;45.99;100242.13;5093724;28;31293;-70
2021/06/18 08:13:50;;;;;;;15.50;10.02;;;;;;;29.76;45.55;100239.81;5093564;28;35341;-74
2021/06/18 08:16:15;;;;;;;15.60;8.90;;;;;;;29.93;44.60;100235.75;5093879;28;32547;-72
2021/06/18 08:18:41;;;;;;;11.48;9.18;;;;;;;30.07;44.25;100230.28;5093724;28;34661;-70
2021/06/18 08:21:08;;;;;;;13.43;9.13;;;;;;;30.24;43.59;100237.97;5093542;28;25597;-70
2021/06/18 08:23:34;;;;;;;11.00;8.45;;;;;;;30.45;44.18;100232.97;5094153;28;20059;-69
2021/06/18 08:25:59;;;;;;;9.38;7.45;;;;;;;30.65;42.78;100226.28;5092691;28;20036;-70
2021/06/18 08:28:25;;;;;;;9.05;8.15;;;;;;;30.59;41.82;100233.78;5092871;28;38822;-70
2021/06/18 08:30:50;;;;;;;11.65;8.57;;;;;;;30.44;40.80;100236.78;5096534;28;39869;-69
2021/06/18 08:33:16;;;;;;;9.80;8.18;;;;;;;30.54;41.69;100236.66;5096067;28;20043;-70
2021/06/18 08:35:41;;;;;;;12.40;8.38;;;;;;;30.83;41.99;100228.09;5096422;28;20108;-71
2021/06/18 08:38:07;;;;;;;13.43;7.93;;;;;;;31.05;40.65;100235.66;5097157;28;27401;-75
2021/06/18 08:40:33;;;;;;;9.68;7.82;;;;;;;31.15;40.61;100233.81;5097080;28;20033;-69
2021/06/18 08:42:59;;;;;;;11.38;8.18;;;;;;;31.49;41.16;100232.53;5096572;28;20041;-67
2021/06/18 08:45:24;;;;;;;12.90;8.20;;;;;;;31.85;40.19;100239.97;5109833;28;20072;-68
2021/06/18 08:47:50;;;;;;;10.43;7.53;;;;;;;32.00;39.93;100234.09;5074963;28;30732;-68
2021/06/18 08:50:22;;;;;;;19.88;8.63;;;;;;;32.09;38.16;100236.09;5076741;28;20036;-68
2021/06/18 08:52:48;;;;;;;16.38;14.65;;;;;;;32.12;38.61;100238.22;5076815;28;20037;-69
2021/06/18 08:55:17;;;;;;;14.70;12.95;;;;;;;32.46;38.78;100231.31;5075235;28;30726;-69
2021/06/18 08:57:42;;;;;;;9.30;6.65;;;;;;;32.72;37.54;100224.00;5085642;28;20093;-68
2021/06/18 09:00:08;;;;;;;11.25;7.15;;;;;;;32.59;34.76;100229.56;5097195;28;22700;-72
2021/06/18 09:02:33;;;;;;;12.27;7.05;;;;;;;32.55;36.19;100230.19;5097276;28;20036;-69
2021/06/18 09:05:07;;;;;;;13.48;6.53;;;;;;;32.76;35.77;100226.91;5096629;28;37908;-66
2021/06/18 09:08:06;;;;;;;8.35;6.90;;;;;;;32.95;35.18;100223.88;5096581;28;20543;-68
2021/06/18 09:10:35;;;;;;;10.88;5.97;;;;;;;33.00;34.29;100211.91;5040690;28;20036;-66
2021/06/18 09:13:14;;;;;;;9.60;5.70;;;;;;;32.92;33.47;100238.31;5096815;28;20047;-67
2021/06/18 09:15:50;;;;;;;;;;;;;;;32.51;32.21;100226.47;5097423;28;20485;-66
2021/06/18 09:18:48;;;;;;;8.35;6.03;;;;;;;32.25;33.16;100209.78;5097099;28;19916;-68
2021/06/18 09:21:15;;;;;;;8.35;6.63;;;;;;;32.48;33.13;100218.81;5049990;28;41816;-65
2021/06/18 09:23:43;;;;;;;9.32;6.20;;;;;;;32.47;31.30;100221.91;5096873;28;20036;-66
2021/06/18 09:26:21;;;;;;;7.90;6.45;;;;;;;32.43;31.60;100207.94;5097027;28;20028;-65
2021/06/18 09:29:01;;;;;;;10.95;6.60;;;;;;;32.68;32.22;100206.44;5096768;28;20123;-65
2021/06/18 09:31:29;;;;;;;25.67;7.35;;;;;;;32.99;31.53;100207.50;5096837;28;20024;-65
2021/06/18 09:33:55;;;;;;;10.05;6.05;;;;;;;33.16;31.32;100203.97;5096584;28;20157;-68
2021/06/18 09:36:20;;;;;;;11.63;6.60;;;;;;;33.08;30.41;100202.81;5112303;28;20093;-68
2021/06/18 09:38:53;;;;;;;16.20;6.43;;;;;;;33.18;30.80;100204.47;5096754;28;20029;-70
2021/06/18 09:41:35;;;;;;;7.95;6.45;;;;;;;33.20;29.13;100200.25;5096282;28;20028;-67
2021/06/18 09:44:04;;;;;;;10.52;6.05;;;;;;;33.14;29.69;100200.72;5096525;28;20055;-67
2021/06/18 09:46:55;;;;;;;9.45;5.93;;;;;;;33.46;30.27;100201.41;5096601;28;20151;-68
2021/06/18 09:49:29;;;;;;;10.45;6.03;;;;;;;33.79;30.34;100198.19;5096508;28;20020;-73
2021/06/18 09:51:57;;;;;;;11.82;6.93;;;;;;;33.99;29.63;100203.00;5093299;28;20059;-70
2021/06/18 09:54:23;;;;;;;8.18;7.30;;;;;;;34.22;28.97;100203.59;5095528;28;20449;-67
2021/06/18 09:56:48;;;;;;;8.57;5.65;;;;;;;34.28;27.80;100203.44;5096107;28;20032;-70
2021/06/18 09:59:22;;;;;;;7.35;5.30;;;;;;;34.20;28.05;100194.00;5096116;28;20036;-68
2021/06/18 10:01:53;;;;;;;9.77;6.07;;;;;;;34.17;27.46;100200.22;5096164;28;20788;-67
2021/06/18 10:04:19;;;;;;;8.90;5.72;;;;;;;34.11;27.40;100193.25;5096264;28;20058;-68
2021/06/18 10:06:44;;;;;;;12.05;6.40;;;;;;;34.08;27.89;100194.72;5094851;28;20059;-67
2021/06/18 10:09:11;;;;;;;8.65;6.00;;;;;;;34.01;27.27;100199.91;5095633;28;20028;-66
2021/06/18 10:11:38;;;;;;;9.30;5.35;;;;;;;33.87;26.85;100192.66;5096064;28;20108;-68
2021/06/18 10:14:03;;;;;;;9.25;5.32;;;;;;;33.86;27.32;100185.50;5094671;28;20060;-67
2021/06/18 10:16:29;;;;;;;7.95;6.22;;;;;;;33.95;26.57;100179.94;5096036;28;20385;-71
2021/06/18 10:18:56;;;;;;;8.77;5.70;;;;;;;33.94;26.63;100183.03;5095896;28;20036;-68
2021/06/18 10:21:21;;;;;;;7.95;5.57;;;;;;;33.93;26.52;100187.75;5094845;28;20029;-68
2021/06/18 10:23:53;;;;;;;7.22;5.70;;;;;;;34.05;26.65;100164.94;5060246;28;27936;-69
2021/06/18 10:26:18;;;;;;;9.65;5.13;;;;;;;34.20;26.81;100178.25;5094841;28;20032;-68
2021/06/18 10:28:55;;;;;;;10.50;6.25;;;;;;;34.35;26.07;100167.81;5110884;28;28819;-67
2021/06/18 10:31:28;;;;;;;9.90;5.35;;;;;;;33.93;25.10;100168.41;5095423;28;20819;-68
2021/06/18 10:34:18;;;;;;;6.93;5.20;;;;;;;33.55;26.02;100172.66;5095613;28;20045;-66
2021/06/18 10:36:44;;;;;;;10.68;5.80;;;;;;;33.73;26.40;100173.44;5095556;28;20508;-67
2021/06/18 10:39:21;;;;;;;10.27;6.03;;;;;;;33.69;25.89;100171.69;5087799;28;30747;-67
2021/06/18 10:41:54;;;;;;;7.80;5.65;;;;;;;33.65;26.51;100165.97;5072937;28;20134;-64
2021/06/18 10:44:38;;;;;;;7.80;5.53;;;;;;;33.98;27.23;100162.72;5073414;28;20029;-67
2021/06/18 10:47:07;;;;;;;7.20;5.15;;;;;;;34.38;27.17;100158.88;5073508;28;20120;-65
2021/06/18 10:49:39;;;;;;;10.10;5.83;;;;;;;34.65;26.53;100163.13;5073808;28;20029;-68
2021/06/18 10:52:15;;;;;;;7.32;5.18;;;;;;;34.71;26.02;100152.69;5072710;28;20993;-65
2021/06/18 10:54:49;;;;;;;8.20;5.05;;;;;;;34.70;25.25;100170.41;5074502;28;20807;-67
2021/06/18 10:57:24;;;;;;;7.00;5.28;;;;;;;34.24;25.04;100159.03;5080252;28;20025;-68
2021/06/18 10:59:51;;;;;;;6.93;4.70;;;;;;;33.90;25.28;100156.06;5094493;28;20097;-68
2021/06/18 11:02:26;;;;;;;8.77;5.20;;;;;;;33.79;25.88;100165.84;5095206;28;20031;-67
2021/06/18 11:04:58;;;;;;;7.70;5.45;;;;;;;33.60;25.57;100162.59;5095052;28;20068;-67
2021/06/18 11:07:30;;;;;;;10.13;5.20;;;;;;;33.39;25.69;100164.06;5094818;28;20067;-68
2021/06/18 11:10:16;;;;;;;7.97;5.65;;;;;;;33.32;25.33;100152.69;5093592;28;20028;-67
2021/06/18 11:12:45;;;;;;;5.80;5.00;;;;;;;33.33;26.61;100159.84;5094702;28;20029;-68
2021/06/18 11:15:20;;;;;;;5.25;4.38;;;;;;;33.40;26.67;100149.13;5095440;28;20028;-67
2021/06/18 11:17:53;;;;;;;9.35;5.88;;;;;;;33.67;26.09;100147.16;5095523;28;20441;-65
2021/06/18 11:20:22;;;;;;;8.88;5.40;;;;;;;33.53;25.72;100140.97;5095069;28;20637;-66
2021/06/18 11:22:53;;;;;;;7.78;5.32;;;;;;;33.45;26.42;100139.03;5093404;28;20039;-65
2021/06/18 11:25:40;;;;;;;7.05;5.00;;;;;;;33.42;26.08;100156.25;5094788;28;20059;-67
2021/06/18 11:31:16;;;;;;;9.45;6.03;;;;;;;32.75;26.84;100145.28;5095355;28;20124;-68
2021/06/18 11:33:42;;;;;;;6.97;5.80;;;;;;;32.66;27.47;100130.66;5093588;28;20107;-69
2021/06/18 11:36:16;;;;;;;6.70;5.68;;;;;;;32.69;27.56;100141.84;5094951;28;20366;-67
2021/06/18 11:38:41;;;;;;;11.98;6.60;;;;;;;32.78;28.09;100138.31;5094736;28;20102;-68
2021/06/18 11:41:09;;;;;;;8.60;6.15;;;;;;;32.95;28.24;100127.31;5110157;28;21067;-67
2021/06/18 11:43:35;;;;;;;8.77;5.90;;;;;;;33.09;28.02;100137.41;5094159;28;20056;-68
2021/06/18 11:46:01;;;;;;;9.65;6.22;;;;;;;33.01;27.91;100137.09;5094260;28;20516;-69
2021/06/18 11:48:26;;;;;;;9.63;5.55;;;;;;;32.95;27.69;100132.84;5094438;28;20017;-68
2021/06/18 11:50:52;;;;;;;6.03;5.25;;;;;;;32.63;27.92;100126.59;5094386;28;20078;-68
2021/06/18 11:53:18;;;;;;;6.60;5.38;;;;;;;32.64;28.93;100132.91;5093475;28;20036;-70
2021/06/18 11:55:43;;;;;;;7.32;5.20;;;;;;;32.68;28.57;100140.25;5094249;28;20033;-67
2021/06/18 11:58:35;;;;;;;12.68;5.45;;;;;;;32.60;28.14;100129.97;5093504;28;20028;-67
2021/06/18 12:01:13;;;;;;;6.15;5.00;;;;;;;32.63;28.41;100132.13;5072169;28;20734;-67
2021/06/18 12:03:39;;;;;;;6.40;5.57;;;;;;;32.68;28.19;100131.97;5073186;28;20033;-71
2021/06/18 12:06:21;;;;;;;8.93;5.43;;;;;;;32.79;29.06;100120.66;5076772;28;35260;-69
2021/06/18 12:09:07;;;;;;;6.00;5.40;;;;;;;33.14;29.22;100117.94;5077974;28;20054;-72
2021/06/18 12:11:38;;;;;;;6.90;5.30;;;;;;;32.98;27.66;100126.66;5093365;28;20401;-71
2021/06/18 12:14:03;;;;;;;8.43;5.97;;;;;;;32.82;28.17;100122.75;5078092;28;20043;-68
2021/06/18 12:16:30;;;;;;;8.73;5.90;;;;;;;32.76;28.35;100118.53;5076066;28;24668;-72
2021/06/18 12:18:56;;;;;;;5.72;5.05;;;;;;;32.90;28.57;100119.19;5077981;28;20524;-69
2021/06/18 12:21:25;;;;;;;6.75;5.40;;;;;;;32.84;28.49;100123.25;5076793;28;20025;-68
2021/06/18 14:04:58;;;;;;;5.80;4.03;;;;;;;31.54;27.22;100078.25;5095518;27;20352;-69
2021/06/18 14:07:23;;;;;;;6.53;4.35;;;;;;;31.58;27.49;100059.97;5107640;28;26514;-71
